createdAt,value
2023-02-19T00:00:28.121Z,65.61
2023-02-19T00:02:55.116Z,65.40
2023-02-19T00:05:24.526Z,65.60
2023-02-19T00:07:51.227Z,66.23
2023-02-19T00:10:19.134Z,65.75
2023-02-19T00:12:47.514Z,66.15
2023-02-19T00:15:14.319Z,65.77
2023-02-19T00:17:43.131Z,66.14
2023-02-19T00:20:10.307Z,66.19
2023-02-19T00:22:37.489Z,66.45
2023-02-19T00:25:06.087Z,66.31
2023-02-19T00:27:34.176Z,66.39
2023-02-19T00:30:01.236Z,66.17
2023-02-19T00:32:28.553Z,66.36
2023-02-19T00:34:55.323Z,66.36
2023-02-19T00:37:23.152Z,66.95
2023-02-19T00:39:50.139Z,67.10
2023-02-19T00:42:16.915Z,67.34
2023-02-19T00:44:44.125Z,67.42
2023-02-19T00:47:12.330Z,68.41
2023-02-19T00:49:39.624Z,68.60
2023-02-19T00:52:10.017Z,68.97
2023-02-19T00:54:37.449Z,69.24
2023-02-19T01:02:52.753Z,70.30
2023-02-19T01:05:19.694Z,70.70
2023-02-19T01:10:41.140Z,70.90
2023-02-19T01:13:08.041Z,71.02
2023-02-19T01:15:35.996Z,71.54
2023-02-19T01:18:04.030Z,71.76
2023-02-19T01:20:32.570Z,71.82
2023-02-19T01:23:00.140Z,71.59
2023-02-19T01:25:30.509Z,71.54
2023-02-19T01:27:57.339Z,71.72
2023-02-19T01:30:24.460Z,71.94
2023-02-19T01:32:51.508Z,72.08
2023-02-19T01:35:19.130Z,72.50
2023-02-19T01:37:48.193Z,72.64
2023-02-19T01:40:14.971Z,72.56
2023-02-19T01:42:45.072Z,73.10
2023-02-19T01:45:44.442Z,73.24
2023-02-19T01:48:20.105Z,73.43
2023-02-19T01:51:00.094Z,73.06
2023-02-19T01:53:56.755Z,73.87
2023-02-19T01:56:27.704Z,73.73
2023-02-19T01:58:54.814Z,73.73
2023-02-19T02:01:22.475Z,73.89
2023-02-19T02:03:52.198Z,73.92
2023-02-19T02:06:26.180Z,74.43
2023-02-19T02:09:00.024Z,74.31
2023-02-19T02:11:29.798Z,74.23
2023-02-19T02:13:59.226Z,74.18
2023-02-19T02:16:35.069Z,74.66
2023-02-19T02:19:15.467Z,75.34
2023-02-19T02:22:00.071Z,74.97
2023-02-19T02:24:54.870Z,75.42
2023-02-19T02:27:36.031Z,75.31
2023-02-19T02:30:16.262Z,75.59
2023-02-19T02:32:50.059Z,75.32
2023-02-19T02:35:22.141Z,75.44
2023-02-19T02:37:54.172Z,75.76
2023-02-19T02:40:25.987Z,75.85
2023-02-19T02:42:52.765Z,77.05
2023-02-19T02:45:21.652Z,77.73
2023-02-19T02:47:52.906Z,78.20
2023-02-19T02:50:26.079Z,80.05
2023-02-19T02:52:58.841Z,80.57
2023-02-19T02:55:34.174Z,80.75
2023-02-19T02:58:28.144Z,80.35
2023-02-19T03:01:04.204Z,80.86
2023-02-19T03:04:05.072Z,80.88
2023-02-19T03:06:37.478Z,81.33
2023-02-19T03:09:19.367Z,81.23
2023-02-19T03:11:51.113Z,81.65
2023-02-19T03:14:31.282Z,81.59
2023-02-19T03:17:17.107Z,82.05
2023-02-19T03:19:49.772Z,82.36
2023-02-19T03:22:22.778Z,83.30
2023-02-19T03:25:00.789Z,84.16
2023-02-19T03:27:31.340Z,83.45
2023-02-19T03:30:05.388Z,83.77
2023-02-19T03:32:47.062Z,83.74
2023-02-19T03:35:46.608Z,83.42
2023-02-19T03:38:24.158Z,83.18
2023-02-19T03:41:21.515Z,83.06
2023-02-19T03:44:13.134Z,82.80
2023-02-19T03:46:41.123Z,83.40
2023-02-19T03:49:22.142Z,82.95
2023-02-19T03:52:16.792Z,82.87
2023-02-19T03:55:06.545Z,83.32
2023-02-19T03:57:47.904Z,83.65
2023-02-19T04:00:52.025Z,83.36
2023-02-19T04:03:24.022Z,83.21
2023-02-19T04:05:59.737Z,83.60
2023-02-19T04:08:28.550Z,83.79
2023-02-19T04:11:01.851Z,84.08
2023-02-19T04:13:38.910Z,83.77
2023-02-19T04:16:13.877Z,83.49
2023-02-19T04:18:44.270Z,83.51
2023-02-19T04:21:14.032Z,83.91
2023-02-19T04:24:22.023Z,83.74
2023-02-19T04:26:49.241Z,83.79
2023-02-19T04:29:16.158Z,84.19
2023-02-19T04:31:43.195Z,84.36
2023-02-19T04:34:10.140Z,84.43
2023-02-19T04:36:37.048Z,84.65
2023-02-19T04:39:04.196Z,84.24
2023-02-19T04:41:31.075Z,84.85
2023-02-19T04:43:57.927Z,86.62
2023-02-19T04:46:24.931Z,87.05
2023-02-19T04:48:51.886Z,87.80
2023-02-19T04:51:18.704Z,87.84
2023-02-19T04:53:45.655Z,87.52
2023-02-19T04:56:15.270Z,87.79
2023-02-19T04:58:43.458Z,88.02
2023-02-19T05:01:12.484Z,87.09
2023-02-19T05:03:39.497Z,87.04
2023-02-19T05:06:09.177Z,87.31
2023-02-19T05:09:00.796Z,86.23
2023-02-19T05:11:27.742Z,85.54
2023-02-19T05:13:55.828Z,84.66
2023-02-19T05:16:22.756Z,85.06
2023-02-19T05:18:49.501Z,85.40
2023-02-19T05:21:16.780Z,85.12
2023-02-19T05:23:44.145Z,85.62
2023-02-19T05:26:17.185Z,86.18
2023-02-19T05:28:49.326Z,85.00
2023-02-19T05:31:16.841Z,84.89
2023-02-19T05:33:44.347Z,84.32
2023-02-19T05:36:14.023Z,84.16
2023-02-19T05:38:42.058Z,84.61
2023-02-19T05:41:17.723Z,83.74
2023-02-19T05:43:47.636Z,84.00
2023-02-19T05:46:16.910Z,84.02
2023-02-19T05:48:43.894Z,83.01
2023-02-19T05:51:14.092Z,84.20
2023-02-19T05:53:42.682Z,84.83
2023-02-19T05:56:38.502Z,84.06
2023-02-19T05:59:26.322Z,84.95
2023-02-19T06:01:55.981Z,84.65
2023-02-19T06:04:22.857Z,83.93
2023-02-19T06:06:50.059Z,83.96
2023-02-19T06:09:17.723Z,84.62
2023-02-19T06:11:45.358Z,84.25
2023-02-19T06:14:13.786Z,84.53
2023-02-19T06:16:41.215Z,83.85
2023-02-19T06:19:10.141Z,83.29
2023-02-19T06:22:02.193Z,82.82
2023-02-19T06:24:31.024Z,83.00
2023-02-19T06:26:57.807Z,81.52
2023-02-19T06:29:25.780Z,80.69
2023-02-19T06:31:52.683Z,81.21
2023-02-19T06:34:19.518Z,80.74
2023-02-19T06:36:48.749Z,80.59
2023-02-19T06:39:15.874Z,79.84
2023-02-19T06:41:42.842Z,79.56
2023-02-19T06:44:09.990Z,78.01
2023-02-19T06:46:37.175Z,78.42
2023-02-19T06:49:09.065Z,77.85
2023-02-19T06:51:37.490Z,77.73
2023-02-19T06:54:05.981Z,76.61
2023-02-19T06:56:38.085Z,76.76
2023-02-19T06:59:09.074Z,77.42
2023-02-19T07:01:37.706Z,76.68
2023-02-19T07:04:06.148Z,76.32
2023-02-19T07:06:34.017Z,76.38
2023-02-19T07:09:04.725Z,76.82
2023-02-19T07:11:34.824Z,76.07
2023-02-19T07:14:04.282Z,76.20
2023-02-19T07:16:31.165Z,76.38
2023-02-19T07:19:03.149Z,76.02
2023-02-19T07:21:37.770Z,76.23
2023-02-19T07:24:09.287Z,75.28
2023-02-19T07:26:36.314Z,75.83
2023-02-19T07:29:03.197Z,75.72
2023-02-19T07:31:30.314Z,75.17
2023-02-19T07:33:57.237Z,74.62
2023-02-19T07:36:24.689Z,75.47
2023-02-19T07:39:02.117Z,76.01
2023-02-19T07:41:54.161Z,76.35
2023-02-19T07:44:27.487Z,76.34
2023-02-19T07:46:54.342Z,76.43
2023-02-19T07:49:21.345Z,75.89
2023-02-19T07:51:48.212Z,76.16
2023-02-19T07:54:15.341Z,76.61
2023-02-19T07:56:42.148Z,76.60
2023-02-19T07:59:08.960Z,76.51
2023-02-19T08:01:36.071Z,77.17
2023-02-19T08:04:02.959Z,76.78
2023-02-19T08:06:29.804Z,76.46
2023-02-19T08:08:57.143Z,76.55
2023-02-19T08:11:24.173Z,76.48
2023-02-19T08:13:52.772Z,77.25
2023-02-19T08:16:33.118Z,77.44
2023-02-19T08:19:04.077Z,76.75
2023-02-19T08:21:34.614Z,78.25
2023-02-19T08:24:01.432Z,81.19
2023-02-19T08:26:29.094Z,80.47
2023-02-19T08:28:56.558Z,80.96
2023-02-19T08:31:23.491Z,81.04
2023-02-19T08:33:52.883Z,80.75
2023-02-19T08:36:19.625Z,82.05
2023-02-19T08:38:46.405Z,79.81
2023-02-19T08:41:15.063Z,79.23
2023-02-19T08:43:42.939Z,78.96
2023-02-19T08:46:11.048Z,79.63
2023-02-19T08:48:38.607Z,79.26
2023-02-19T08:51:07.794Z,77.27
2023-02-19T08:53:37.508Z,76.63
2023-02-19T08:56:22.202Z,76.01
2023-02-19T08:58:49.809Z,75.35
2023-02-19T09:01:18.490Z,75.45
2023-02-19T09:03:45.974Z,73.92
2023-02-19T09:06:19.202Z,74.71
2023-02-19T09:08:46.732Z,76.87
2023-02-19T09:11:17.098Z,81.35
2023-02-19T09:13:47.617Z,81.90
2023-02-19T09:16:14.640Z,84.78
2023-02-19T09:18:42.168Z,84.25
2023-02-19T09:21:09.190Z,85.83
2023-02-19T09:23:38.086Z,85.24
2023-02-19T09:26:06.760Z,84.77
2023-02-19T09:28:33.751Z,85.85
2023-02-19T09:31:15.074Z,84.10
2023-02-19T09:33:43.588Z,84.82
2023-02-19T09:36:10.868Z,84.70
2023-02-19T09:38:37.836Z,84.50
2023-02-19T09:41:14.208Z,84.97
2023-02-19T09:43:46.141Z,84.32
2023-02-19T09:46:29.201Z,84.54
2023-02-19T09:49:03.901Z,83.70
2023-02-19T09:51:32.680Z,82.49
2023-02-19T09:54:00.582Z,82.16
2023-02-19T09:56:28.101Z,82.50
2023-02-19T09:58:58.344Z,81.63
2023-02-19T10:01:30.144Z,79.96
2023-02-19T10:03:58.670Z,80.85
2023-02-19T10:06:28.321Z,80.65
2023-02-19T10:09:13.589Z,77.46
2023-02-19T10:11:42.230Z,76.90
2023-02-19T10:14:17.395Z,76.63
2023-02-19T10:16:48.266Z,75.75
2023-02-19T10:19:16.314Z,76.08
2023-02-19T10:21:44.199Z,74.17
2023-02-19T10:24:21.135Z,73.52
2023-02-19T10:26:50.758Z,72.11
2023-02-19T10:29:17.765Z,72.69
2023-02-19T10:31:44.674Z,71.87
2023-02-19T10:34:21.074Z,70.36
2023-02-19T10:36:51.009Z,71.33
2023-02-19T10:39:36.886Z,70.39
2023-02-19T10:42:04.274Z,69.76
2023-02-19T10:44:44.296Z,69.10
2023-02-19T10:47:36.365Z,67.74
2023-02-19T10:52:57.486Z,67.31
2023-02-19T10:55:38.758Z,67.66
2023-02-19T10:58:26.813Z,66.81
2023-02-19T11:01:30.598Z,66.66
2023-02-19T11:04:22.546Z,67.01
2023-02-19T11:06:51.178Z,67.06
2023-02-19T11:09:27.149Z,67.81
2023-02-19T11:11:56.291Z,67.88
2023-02-19T11:14:25.901Z,67.92
2023-02-19T11:16:58.704Z,67.78
2023-02-19T11:19:34.809Z,68.62
2023-02-19T11:22:03.435Z,67.01
2023-02-19T11:24:39.014Z,67.00
2023-02-19T11:27:17.404Z,66.99
2023-02-19T11:29:44.233Z,67.50
2023-02-19T11:32:24.627Z,66.63
2023-02-19T11:34:52.015Z,66.57
2023-02-19T11:37:22.112Z,66.74
2023-02-19T11:39:52.702Z,65.41
2023-02-19T11:42:30.614Z,67.22
2023-02-19T11:45:17.353Z,66.16
2023-02-19T11:48:12.400Z,66.35
2023-02-19T11:50:47.870Z,66.00
2023-02-19T11:53:43.044Z,66.25
2023-02-19T11:56:23.882Z,66.37
2023-02-19T11:59:02.924Z,67.46
2023-02-19T12:01:51.193Z,65.82
2023-02-19T12:04:39.855Z,67.17
2023-02-19T12:07:09.568Z,67.14
2023-02-19T12:09:42.431Z,67.13
2023-02-19T12:12:21.711Z,67.80
2023-02-19T12:15:09.865Z,67.85
2023-02-19T12:17:48.015Z,67.85
2023-02-19T12:20:32.015Z,67.98
2023-02-19T12:23:40.392Z,68.37
2023-02-19T12:26:37.103Z,68.10
2023-02-19T12:29:24.137Z,68.20
2023-02-19T12:31:56.973Z,68.08
2023-02-19T12:34:40.788Z,67.07
2023-02-19T12:37:24.906Z,65.71
2023-02-19T12:40:17.260Z,64.37
2023-02-19T12:43:05.798Z,64.97
2023-02-19T12:45:37.094Z,65.22
2023-02-19T12:48:07.257Z,65.92
2023-02-19T12:50:37.878Z,66.90
2023-02-19T12:53:32.947Z,68.02
2023-02-19T12:56:06.628Z,68.78
2023-02-19T12:58:54.176Z,67.60
2023-02-19T13:01:29.045Z,67.36
2023-02-19T13:04:09.097Z,66.13
2023-02-19T13:06:53.136Z,65.09
2023-02-19T13:09:31.016Z,64.38
2023-02-19T13:12:30.011Z,64.44
2023-02-19T13:15:04.766Z,62.64
2023-02-19T13:17:45.994Z,62.63
2023-02-19T13:20:35.432Z,61.68
2023-02-19T13:23:24.066Z,61.49
2023-02-19T13:26:19.613Z,61.43
2023-02-19T13:29:08.724Z,61.79
2023-02-19T13:32:05.491Z,62.19
2023-02-19T13:35:03.151Z,62.45
2023-02-19T13:37:40.001Z,62.60
2023-02-19T13:40:27.659Z,62.87
2023-02-19T13:42:59.298Z,63.05
2023-02-19T13:45:36.107Z,63.25
2023-02-19T13:48:14.704Z,62.81
2023-02-19T13:50:42.949Z,62.80
2023-02-19T13:53:40.866Z,64.01
2023-02-19T13:56:34.500Z,64.42
2023-02-19T13:59:11.572Z,66.49
2023-02-19T14:01:51.400Z,67.24
2023-02-19T14:04:47.192Z,67.40
2023-02-19T14:07:14.340Z,66.80
2023-02-19T14:09:41.521Z,67.86
2023-02-19T14:12:15.495Z,68.13
2023-02-19T14:14:48.689Z,68.13
2023-02-19T14:17:43.028Z,67.33
2023-02-19T14:20:10.547Z,67.10
2023-02-19T14:22:48.045Z,65.94
2023-02-19T14:25:36.016Z,66.48
2023-02-19T14:28:15.247Z,66.59
2023-02-19T14:30:57.043Z,66.84
2023-02-19T14:33:58.827Z,67.29
2023-02-19T14:36:38.353Z,68.20
2023-02-19T14:39:26.707Z,71.20
2023-02-19T14:42:02.328Z,71.83
2023-02-19T14:44:37.428Z,75.19
2023-02-19T14:47:12.354Z,75.95
2023-02-19T14:49:43.458Z,74.46
2023-02-19T14:52:20.959Z,77.34
2023-02-19T14:55:00.473Z,77.26
2023-02-19T14:57:40.534Z,79.91
2023-02-19T15:00:23.035Z,81.73
2023-02-19T15:02:52.433Z,81.47
2023-02-19T15:05:25.300Z,82.36
2023-02-19T15:08:00.801Z,83.33
2023-02-19T15:10:32.222Z,83.65
2023-02-19T15:13:10.175Z,85.23
2023-02-19T15:15:43.896Z,85.30
2023-02-19T15:18:23.114Z,85.43
2023-02-19T15:20:58.696Z,86.46
2023-02-19T15:23:29.127Z,88.29
2023-02-19T15:26:00.236Z,88.04
2023-02-19T15:28:31.558Z,87.09
2023-02-19T15:30:59.164Z,87.63
2023-02-19T15:33:28.319Z,87.79
2023-02-19T15:36:03.290Z,88.89
2023-02-19T15:38:30.995Z,89.01
2023-02-19T15:40:58.924Z,90.86
2023-02-19T15:43:32.844Z,93.45
2023-02-19T15:46:09.442Z,94.72
2023-02-19T15:48:59.805Z,93.57
2023-02-19T15:51:37.407Z,94.24
2023-02-19T15:54:31.236Z,97.00
2023-02-19T15:57:06.970Z,97.63
2023-02-19T16:00:00.381Z,99.61
2023-02-19T16:02:28.387Z,97.88
2023-02-19T16:04:56.753Z,97.20
2023-02-19T16:07:27.436Z,98.00
2023-02-19T16:10:22.484Z,99.93
2023-02-19T16:13:01.165Z,100.00
2023-02-19T16:15:33.161Z,100.00
2023-02-19T16:18:00.793Z,100.00
2023-02-19T16:20:31.425Z,100.00
2023-02-19T16:23:04.407Z,100.00
2023-02-19T16:25:41.606Z,100.00
2023-02-19T16:28:33.230Z,100.00
2023-02-19T16:31:06.600Z,100.00
2023-02-19T16:33:37.644Z,100.00
2023-02-19T16:36:25.710Z,99.51
2023-02-19T16:39:22.212Z,99.79
2023-02-19T16:41:50.761Z,99.79
2023-02-19T16:44:21.393Z,98.80
2023-02-19T16:46:58.547Z,98.59
2023-02-19T16:49:26.630Z,96.73
2023-02-19T16:51:54.753Z,96.69
2023-02-19T16:54:22.745Z,96.09
2023-02-19T16:56:51.744Z,95.74
2023-02-19T16:59:19.643Z,94.45
2023-02-19T17:01:48.503Z,94.16
2023-02-19T17:04:16.761Z,94.91
2023-02-19T17:06:45.723Z,94.88
2023-02-19T17:09:16.894Z,95.74
2023-02-19T17:11:44.554Z,96.38
2023-02-19T17:14:12.777Z,96.59
2023-02-19T17:16:40.732Z,97.13
2023-02-19T17:19:17.024Z,98.11
2023-02-19T17:21:45.778Z,97.51
2023-02-19T17:24:14.165Z,99.02
2023-02-19T17:26:42.465Z,97.77
2023-02-19T17:29:15.594Z,98.44
2023-02-19T17:31:45.115Z,96.88
2023-02-19T17:34:14.108Z,98.58
2023-02-19T17:36:42.393Z,98.61
2023-02-19T17:39:14.352Z,99.00
2023-02-19T17:41:41.944Z,99.16
2023-02-19T17:44:10.474Z,100.00
2023-02-19T17:46:39.151Z,99.91
2023-02-19T17:49:07.875Z,100.00
2023-02-19T17:51:35.617Z,100.00
2023-02-19T17:54:05.827Z,100.00
2023-02-19T17:56:34.462Z,100.00
2023-02-19T17:59:02.538Z,100.00
2023-02-19T18:01:30.821Z,100.00
2023-02-19T18:03:58.880Z,100.00
2023-02-19T18:06:28.022Z,99.42
2023-02-19T18:08:55.778Z,100.00
2023-02-19T18:11:24.625Z,100.00
2023-02-19T18:13:52.954Z,100.00
2023-02-19T18:16:25.011Z,100.00
2023-02-19T18:18:54.642Z,100.00
2023-02-19T18:21:24.815Z,100.00
2023-02-19T18:23:53.620Z,100.00
2023-02-19T18:26:26.350Z,99.84
2023-02-19T18:28:54.432Z,99.91
2023-02-19T18:31:23.088Z,100.00
2023-02-19T18:33:50.300Z,99.92
2023-02-19T18:36:18.018Z,98.49
2023-02-19T18:38:45.660Z,98.88
2023-02-19T18:41:14.816Z,98.94
2023-02-19T18:43:42.689Z,98.81
2023-02-19T18:46:12.548Z,98.38
2023-02-19T18:48:40.792Z,98.22
2023-02-19T18:51:12.261Z,98.76
2023-02-19T18:53:42.728Z,98.96
2023-02-19T18:56:11.120Z,98.71
2023-02-19T18:58:38.371Z,98.97
2023-02-19T19:01:06.626Z,99.44
2023-02-19T19:04:02.264Z,99.19
2023-02-19T19:06:31.551Z,98.10
2023-02-19T19:08:59.454Z,97.69
2023-02-19T19:11:28.220Z,98.89
2023-02-19T19:13:56.419Z,98.25
2023-02-19T19:16:26.655Z,97.93
2023-02-19T19:18:57.120Z,97.86
2023-02-19T19:21:26.725Z,97.42
2023-02-19T19:23:54.650Z,98.45
2023-02-19T19:26:22.554Z,98.15
2023-02-19T19:28:50.374Z,97.48
2023-02-19T19:31:19.871Z,97.90
2023-02-19T19:33:49.588Z,96.97
2023-02-19T19:36:23.724Z,97.59
2023-02-19T19:38:52.442Z,98.06
2023-02-19T19:41:30.910Z,95.63
2023-02-19T19:44:03.109Z,95.88
2023-02-19T19:46:34.704Z,96.83
2023-02-19T19:49:03.283Z,95.36
2023-02-19T19:51:36.072Z,95.12
2023-02-19T19:54:07.717Z,95.22
2023-02-19T19:56:44.429Z,94.93
2023-02-19T19:59:15.354Z,95.98
2023-02-19T20:01:57.555Z,95.29
2023-02-19T20:04:28.552Z,93.56
2023-02-19T20:07:00.010Z,95.34
2023-02-19T20:09:28.303Z,94.35
2023-02-19T20:11:57.401Z,94.53
2023-02-19T20:14:30.407Z,94.85
2023-02-19T20:17:03.758Z,95.07
2023-02-19T20:19:33.027Z,94.01
2023-02-19T20:22:01.021Z,94.57
2023-02-19T20:24:30.691Z,94.98
2023-02-19T20:27:00.709Z,94.93
2023-02-19T20:29:33.050Z,94.04
2023-02-19T20:32:01.607Z,94.48
2023-02-19T20:34:29.743Z,94.15
2023-02-19T20:36:59.554Z,95.79
2023-02-19T20:39:27.918Z,96.24
2023-02-19T20:41:56.460Z,95.91
2023-02-19T20:44:25.514Z,96.16
2023-02-19T20:46:54.057Z,97.42
2023-02-19T20:49:25.524Z,96.77
2023-02-19T20:52:08.793Z,97.09
2023-02-19T20:54:37.225Z,98.27
2023-02-19T20:57:07.315Z,98.25
2023-02-19T20:59:35.382Z,97.81
2023-02-19T21:02:04.699Z,99.13
2023-02-19T21:04:32.238Z,97.67
2023-02-19T21:07:00.749Z,98.66
2023-02-19T21:09:30.428Z,99.10
2023-02-19T21:11:59.990Z,99.95
2023-02-19T21:14:27.920Z,100.00
2023-02-19T21:16:58.299Z,100.00
2023-02-19T21:19:26.045Z,100.00
2023-02-19T21:21:55.088Z,100.00
2023-02-19T21:24:22.248Z,99.76
2023-02-19T21:26:49.781Z,98.93
2023-02-19T21:29:21.294Z,99.28
2023-02-19T21:31:53.646Z,99.49
2023-02-19T21:34:26.494Z,98.59
2023-02-19T21:36:55.266Z,99.56
2023-02-19T21:39:24.731Z,99.86
2023-02-19T21:41:53.464Z,100.00
2023-02-19T21:44:22.485Z,99.45
2023-02-19T21:46:50.937Z,99.15
2023-02-19T21:49:19.206Z,98.51
2023-02-19T21:51:46.618Z,97.91
2023-02-19T21:54:17.097Z,98.94
2023-02-19T21:56:44.567Z,98.73
2023-02-19T21:59:11.691Z,99.38
2023-02-19T22:01:39.547Z,100.00
2023-02-19T22:04:08.128Z,100.00
2023-02-19T22:06:35.181Z,99.90
2023-02-19T22:09:02.106Z,99.61
2023-02-19T22:11:28.950Z,98.15
2023-02-19T22:13:55.809Z,97.82
2023-02-19T22:16:22.963Z,98.49
2023-02-19T22:18:55.401Z,97.47
2023-02-19T22:21:24.210Z,98.49
2023-02-19T22:23:52.698Z,98.88
2023-02-19T22:26:25.015Z,98.23
2023-02-19T22:28:53.392Z,98.11
2023-02-19T22:31:22.852Z,96.84
2023-02-19T22:33:50.455Z,97.48
2023-02-19T22:36:25.138Z,97.70
2023-02-19T22:38:52.640Z,96.38
2023-02-19T22:41:20.912Z,98.62
2023-02-19T22:43:48.148Z,98.72
2023-02-19T22:46:18.194Z,97.65
2023-02-19T22:48:45.513Z,97.60
2023-02-19T22:51:14.026Z,97.34
2023-02-19T22:53:46.022Z,98.00
2023-02-19T22:56:14.430Z,98.22
2023-02-19T22:59:08.584Z,97.70
2023-02-19T23:01:36.614Z,97.92
2023-02-19T23:04:03.816Z,97.17
2023-02-19T23:06:33.124Z,97.35
2023-02-19T23:09:10.999Z,98.05
2023-02-19T23:11:38.553Z,98.79
2023-02-19T23:14:06.744Z,98.60
2023-02-19T23:16:34.385Z,97.41
2023-02-19T23:19:05.782Z,96.09
2023-02-19T23:21:35.223Z,97.36
2023-02-19T23:24:02.103Z,98.24
2023-02-19T23:26:28.983Z,98.46
2023-02-19T23:28:56.181Z,99.36
2023-02-19T23:31:23.616Z,99.32
2023-02-19T23:33:50.661Z,99.67
2023-02-19T23:36:17.461Z,98.61
2023-02-19T23:38:47.594Z,98.65
2023-02-19T23:41:16.476Z,98.70
2023-02-19T23:43:43.453Z,98.94
2023-02-19T23:46:14.819Z,98.32
2023-02-19T23:48:42.169Z,98.86
2023-02-19T23:51:08.896Z,98.42
2023-02-19T23:53:35.750Z,99.76
2023-02-19T23:56:02.580Z,100.00
2023-02-19T23:58:29.417Z,98.91
